Paris, Illinois
Current Conditions -  °F | °C
As of 8:35 PM on Friday 28 Nov 2014 (Local Time) from KPRG Reporting Station
Clear Clear  
Wind Chill: 26°   Ceiling: Unl
Heat Index: 36°   Visibility: 10mi
Dew Point: 30°   Wind: 15mph
Humidity: 79%   Direction: 160°SSE
Pressure: 30"   Gusts: NA
Location:  39.61°N, 87.69°W
Report Text: KPRG 290235Z AUTO 16013KT 10SM CLR 02/M01 A3000 RMK AO2 T00201013
Loading
Personal Weather Stations






























Interactive Weather Map New forecast layout! Learn more

10-Day Weather Forecast

Advertisements
Track Severe Weather on mobile